Time,TemperatureF,DewpointF,PressureIn,WindDirection,WindDirectionDegrees,WindSpeedMPH,WindSpeedGustMPH,Humidity,HourlyPrecipIn,Conditions,Clouds,dailyrainin,SoftwareType,DateUTC
2013-12-18 00:02:00,-2.0,-7.0,-100.00,SSW,200,0.0,0.0,81,-99.99,,,-99.99,,2013-12-18 06:02:00,
2013-12-18 01:10:00,-2.0,-6.0,-100.00,SW,225,0.0,0.0,83,-99.99,,,-99.99,,2013-12-18 07:10:00,
2013-12-18 01:42:00,-2.0,-6.0,-100.00,SW,225,0.0,0.0,83,-99.99,,,-99.99,,2013-12-18 07:42:00,
2013-12-18 01:53:00,-2.0,-6.0,-100.00,SW,225,0.0,0.0,83,-99.99,,,-99.99,,2013-12-18 07:53:00,
2013-12-18 02:02:00,-2.0,-6.0,-100.00,SW,225,0.0,0.0,83,-99.99,,,-99.99,,2013-12-18 08:02:00,
2013-12-18 02:10:00,0.0,-4.0,-100.00,SSE,155,0.0,0.0,84,-99.99,,,-99.99,,2013-12-18 08:10:00,
2013-12-18 02:42:00,0.0,-4.0,-100.00,SSE,155,0.0,0.0,84,-99.99,,,-99.99,,2013-12-18 08:42:00,
2013-12-18 02:52:00,0.0,-4.0,-100.00,SSE,155,0.0,0.0,84,-99.99,,,-99.99,,2013-12-18 08:52:00,
2013-12-18 03:02:00,0.0,-4.0,-100.00,SSE,155,0.0,0.0,84,-99.99,,,-99.99,,2013-12-18 09:02:00,
2013-12-18 03:10:00,0.0,-3.0,-100.00,SE,140,0.0,0.0,84,-99.99,,,-99.99,,2013-12-18 09:10:00,
2013-12-18 03:43:00,0.0,-3.0,-100.00,SE,140,0.0,0.0,84,-99.99,,,-99.99,,2013-12-18 09:43:00,
2013-12-18 03:53:00,0.0,-3.0,-100.00,SE,140,0.0,0.0,84,-99.99,,,-99.99,,2013-12-18 09:53:00,
2013-12-18 04:03:00,0.0,-3.0,-100.00,SE,140,0.0,0.0,84,-99.99,,,-99.99,,2013-12-18 10:03:00,
2013-12-18 04:42:00,4.0,1.0,-100.00,ENE,75,0.0,0.0,86,-99.99,,,-99.99,,2013-12-18 10:42:00,
2013-12-18 04:52:00,4.0,1.0,-100.00,ENE,75,0.0,0.0,86,-99.99,,,-99.99,,2013-12-18 10:52:00,
2013-12-18 05:03:00,4.0,1.0,-100.00,ENE,75,0.0,0.0,86,-99.99,,,-99.99,,2013-12-18 11:03:00,
2013-12-18 05:42:00,8.0,4.0,-100.00,South,170,0.0,0.0,85,-99.99,,,-99.99,,2013-12-18 11:42:00,
2013-12-18 05:53:00,8.0,4.0,-100.00,South,170,0.0,0.0,85,-99.99,,,-99.99,,2013-12-18 11:53:00,
2013-12-18 06:02:00,8.0,4.0,-100.00,South,170,0.0,0.0,85,-99.99,,,-99.99,,2013-12-18 12:02:00,
2013-12-18 07:10:00,11.0,4.0,-100.00,ENE,75,0.0,0.0,76,-99.99,,,-99.99,,2013-12-18 13:10:00,
2013-12-18 07:42:00,11.0,4.0,-100.00,ENE,75,0.0,0.0,76,-99.99,,,-99.99,,2013-12-18 13:42:00,
2013-12-18 07:52:00,11.0,4.0,-100.00,ENE,75,0.0,0.0,76,-99.99,,,-99.99,,2013-12-18 13:52:00,
2013-12-18 08:02:00,11.0,4.0,-100.00,ENE,75,0.0,0.0,76,-99.99,,,-99.99,,2013-12-18 14:02:00,
2013-12-18 08:42:00,12.0,7.0,-100.00,East,90,0.0,0.0,77,-99.99,,,-99.99,,2013-12-18 14:42:00,
2013-12-18 08:52:00,12.0,7.0,-100.00,East,90,0.0,0.0,77,-99.99,,,-99.99,,2013-12-18 14:52:00,
2013-12-18 09:02:00,12.0,7.0,-100.00,East,90,0.0,0.0,77,-99.99,,,-99.99,,2013-12-18 15:02:00,
2013-12-18 09:44:00,18.0,10.0,-100.00,ESE,120,0.0,0.0,71,-99.99,,,-99.99,,2013-12-18 15:44:00,
2013-12-18 09:53:00,18.0,10.0,-100.00,ESE,120,0.0,0.0,71,-99.99,,,-99.99,,2013-12-18 15:53:00,
2013-12-18 10:04:00,18.0,10.0,-100.00,ESE,120,0.0,0.0,71,-99.99,,,-99.99,,2013-12-18 16:04:00,
2013-12-18 10:10:00,24.0,7.0,-100.00,SSE,160,3.0,12.0,48,-99.99,,,-99.99,,2013-12-18 16:10:00,
2013-12-18 10:42:00,24.0,7.0,-100.00,SSE,160,3.0,12.0,48,-99.99,,,-99.99,,2013-12-18 16:42:00,
2013-12-18 10:53:00,24.0,7.0,-100.00,SSE,160,3.0,12.0,48,-99.99,,,-99.99,,2013-12-18 16:53:00,
2013-12-18 11:02:00,24.0,7.0,-100.00,SSE,160,3.0,12.0,48,-99.99,,,-99.99,,2013-12-18 17:02:00,
2013-12-18 11:10:00,27.0,7.0,-100.00,SSE,155,7.0,16.0,42,-99.99,,,-99.99,,2013-12-18 17:10:00,
2013-12-18 11:42:00,27.0,7.0,-100.00,SSE,155,7.0,16.0,42,-99.99,,,-99.99,,2013-12-18 17:42:00,
2013-12-18 11:52:00,27.0,7.0,-100.00,SSE,155,7.0,16.0,42,-99.99,,,-99.99,,2013-12-18 17:52:00,
2013-12-18 12:02:00,27.0,7.0,-100.00,SSE,155,7.0,16.0,42,-99.99,,,-99.99,,2013-12-18 18:02:00,
2013-12-18 12:42:00,30.0,10.0,-100.00,South,175,4.0,24.0,43,-99.99,,,-99.99,,2013-12-18 18:42:00,
2013-12-18 12:52:00,30.0,10.0,-100.00,South,175,4.0,24.0,43,-99.99,,,-99.99,,2013-12-18 18:52:00,
2013-12-18 13:02:00,30.0,10.0,-100.00,South,175,4.0,24.0,43,-99.99,,,-99.99,,2013-12-18 19:02:00,
2013-12-18 14:10:00,31.0,13.0,-100.00,SSW,195,3.0,10.0,47,-99.99,,,-99.99,,2013-12-18 20:10:00,
2013-12-18 14:42:00,31.0,13.0,-100.00,SSW,195,3.0,10.0,47,-99.99,,,-99.99,,2013-12-18 20:42:00,
2013-12-18 14:53:00,31.0,13.0,-100.00,SSW,195,3.0,10.0,47,-99.99,,,-99.99,,2013-12-18 20:53:00,
2013-12-18 15:02:00,31.0,13.0,-100.00,SSW,195,3.0,10.0,47,-99.99,,,-99.99,,2013-12-18 21:02:00,
2013-12-18 15:43:00,31.0,14.0,-100.00,SSW,195,4.0,9.0,48,-99.99,,,-99.99,,2013-12-18 21:43:00,
2013-12-18 15:53:00,31.0,14.0,-100.00,SSW,195,4.0,9.0,48,-99.99,,,-99.99,,2013-12-18 21:53:00,
2013-12-18 16:03:00,31.0,14.0,-100.00,SSW,195,4.0,9.0,48,-99.99,,,-99.99,,2013-12-18 22:03:00,
2013-12-18 16:10:00,29.0,14.0,-100.00,SSW,195,0.0,0.0,54,-99.99,,,-99.99,,2013-12-18 22:10:00,
2013-12-18 16:43:00,29.0,14.0,-100.00,SSW,195,0.0,0.0,54,-99.99,,,-99.99,,2013-12-18 22:43:00,
2013-12-18 16:53:00,29.0,14.0,-100.00,SSW,195,0.0,0.0,54,-99.99,,,-99.99,,2013-12-18 22:53:00,
2013-12-18 17:02:00,29.0,14.0,-100.00,SSW,195,0.0,0.0,54,-99.99,,,-99.99,,2013-12-18 23:02:00,
2013-12-18 18:10:00,22.0,17.0,-100.00,SSW,200,0.0,0.0,79,-99.99,,,-99.99,,2013-12-19 00:10:00,
2013-12-18 18:42:00,22.0,17.0,-100.00,SSW,200,0.0,0.0,79,-99.99,,,-99.99,,2013-12-19 00:42:00,
2013-12-18 18:52:00,22.0,17.0,-100.00,SSW,200,0.0,0.0,79,-99.99,,,-99.99,,2013-12-19 00:52:00,
2013-12-18 19:01:00,22.0,17.0,-100.00,SSW,200,0.0,0.0,79,-99.99,,,-99.99,,2013-12-19 01:01:00,
2013-12-18 19:42:00,21.0,17.0,-100.00,West,265,0.0,0.0,85,-99.99,,,-99.99,,2013-12-19 01:42:00,
2013-12-18 19:52:00,21.0,17.0,-100.00,West,265,0.0,0.0,85,-99.99,,,-99.99,,2013-12-19 01:52:00,
2013-12-18 20:01:00,21.0,17.0,-100.00,West,265,0.0,0.0,85,-99.99,,,-99.99,,2013-12-19 02:01:00,
2013-12-18 20:52:00,19.0,16.0,-100.00,SW,215,0.0,0.0,90,-99.99,,,-99.99,,2013-12-19 02:52:00,
2013-12-18 21:02:00,19.0,16.0,-100.00,SW,215,0.0,0.0,90,-99.99,,,-99.99,,2013-12-19 03:02:00,
2013-12-18 21:43:00,15.0,14.0,-100.00,NW,315,0.0,0.0,92,-99.99,,,-99.99,,2013-12-19 03:43:00,
2013-12-18 21:54:00,15.0,14.0,-100.00,NW,315,0.0,0.0,92,-99.99,,,-99.99,,2013-12-19 03:54:00,
2013-12-18 22:03:00,15.0,14.0,-100.00,NW,315,0.0,0.0,92,-99.99,,,-99.99,,2013-12-19 04:03:00,
2013-12-18 22:10:00,13.0,12.0,-100.00,WSW,240,0.0,0.0,94,-99.99,,,-99.99,,2013-12-19 04:10:00,
2013-12-18 22:43:00,13.0,12.0,-100.00,WSW,240,0.0,0.0,94,-99.99,,,-99.99,,2013-12-19 04:43:00,
2013-12-18 22:53:00,13.0,12.0,-100.00,WSW,240,0.0,0.0,94,-99.99,,,-99.99,,2013-12-19 04:53:00,
2013-12-18 23:03:00,13.0,12.0,-100.00,WSW,240,0.0,0.0,94,-99.99,,,-99.99,,2013-12-19 05:03:00,
2013-12-18 23:42:00,11.0,10.0,-100.00,WNW,295,2.0,4.0,94,-99.99,,,-99.99,,2013-12-19 05:42:00,
2013-12-18 23:52:00,11.0,10.0,-100.00,WNW,295,2.0,4.0,94,-99.99,,,-99.99,,2013-12-19 05:52:00,